Time;durP1;ratioP1;P1;durP2;ratioP2;P2;SDS_P1;SDS_P2;PMS_P1;PMS_P2;Temp;Humidity;BMP_temperature;BMP_pressure;BME280_temperature;BME280_humidity;BME280_pressure;Samples;Min_cycle;Max_cycle;Signal;HPM_P1;HPM_P2
2021/11/13 00:00:39;;;;;;;97.60;65.15;;;5.60;99.90;;;;;;5078665;28;20996;-86
2021/11/13 00:03:07;;;;;;;93.88;59.20;;;5.60;99.90;;;;;;5077987;28;20601;-86
2021/11/13 00:05:36;;;;;;;97.30;63.63;;;5.60;99.90;;;;;;5078010;28;20156;-86
2021/11/13 00:08:03;;;;;;;98.50;66.57;;;5.50;99.90;;;;;;5078148;28;20170;-86
2021/11/13 00:10:32;;;;;;;99.82;67.53;;;5.50;99.90;;;;;;5078296;28;20152;-86
2021/11/13 00:13:00;;;;;;;98.88;62.08;;;5.50;99.90;;;;;;5078052;28;20164;-86
2021/11/13 00:15:27;;;;;;;100.78;60.20;;;5.50;99.90;;;;;;5077846;28;20187;-86
2021/11/13 00:17:53;;;;;;;101.20;68.00;;;5.50;99.90;;;;;;5078316;28;20156;-86
2021/11/13 00:20:22;;;;;;;98.82;64.57;;;5.50;99.90;;;;;;5078122;28;20214;-86
2021/11/13 00:22:51;;;;;;;101.20;68.32;;;5.60;99.90;;;;;;5078038;28;20686;-86
2021/11/13 00:25:16;;;;;;;103.75;81.65;;;5.60;99.90;;;;;;5077754;28;20168;-86
2021/11/13 00:27:42;;;;;;;108.27;89.00;;;5.70;99.90;;;;;;5078674;28;20242;-86
2021/11/13 00:30:13;;;;;;;106.28;87.78;;;5.70;99.90;;;;;;5060478;28;20426;-86
2021/11/13 00:32:39;;;;;;;104.00;74.82;;;5.60;99.90;;;;;;5060185;28;20181;-86
2021/11/13 00:35:05;;;;;;;102.72;77.70;;;5.60;99.90;;;;;;5060372;28;20195;-86
2021/11/13 00:37:31;;;;;;;102.22;79.72;;;5.60;99.90;;;;;;5077731;28;20195;-86
2021/11/13 00:39:57;;;;;;;100.43;78.50;;;5.60;99.90;;;;;;5077736;28;20194;-86
2021/11/13 00:42:23;;;;;;;105.37;92.60;;;5.60;99.90;;;;;;5077999;28;20523;-86
2021/11/13 00:44:49;;;;;;;99.87;74.53;;;5.50;99.90;;;;;;5078084;28;20164;-85
2021/11/13 00:47:15;;;;;;;106.80;91.27;;;5.50;99.90;;;;;;5060284;28;20433;-86
2021/11/13 00:49:41;;;;;;;104.60;87.90;;;5.50;99.90;;;;;;5135460;23;20480;-85
2021/11/13 00:52:07;;;;;;;113.57;94.30;;;5.50;99.90;;;;;;5099098;28;20242;-85
2021/11/13 00:54:33;;;;;;;104.03;74.97;;;5.60;99.90;;;;;;5098366;28;20520;-86
2021/11/13 00:57:00;;;;;;;104.00;85.20;;;5.60;99.90;;;;;;5099172;28;20578;-85
2021/11/13 00:59:27;;;;;;;110.97;94.30;;;5.60;99.90;;;;;;5099738;28;20194;-85
2021/11/13 01:01:53;;;;;;;103.53;79.95;;;5.60;99.90;;;;;;5099294;28;20250;-86
2021/11/13 01:04:18;;;;;;;101.47;73.82;;;5.70;99.90;;;;;;5097949;28;20167;-85
2021/11/13 01:06:44;;;;;;;108.83;84.60;;;5.70;99.90;;;;;;5099158;28;20224;-85
2021/11/13 01:09:10;;;;;;;106.63;94.80;;;5.60;99.90;;;;;;5099463;28;20197;-85
2021/11/13 01:11:36;;;;;;;109.27;90.87;;;5.60;99.90;;;;;;5097529;28;20412;-86
2021/11/13 01:14:02;;;;;;;104.27;87.73;;;5.60;99.90;;;;;;5098897;28;20187;-86
2021/11/13 01:16:31;;;;;;;104.18;84.30;;;5.60;99.90;;;;;;5101741;28;20650;-86
2021/11/13 01:18:57;;;;;;;114.57;101.32;;;5.70;99.90;;;;;;5098837;28;20343;-85
2021/11/13 01:21:24;;;;;;;106.17;94.40;;;5.70;99.90;;;;;;5098969;28;20209;-86
2021/11/13 01:23:50;;;;;;;116.22;103.57;;;5.70;99.90;;;;;;5098130;28;20163;-85
2021/11/13 01:26:16;;;;;;;104.90;80.22;;;5.70;99.90;;;;;;5098693;28;20542;-85
2021/11/13 01:28:42;;;;;;;110.50;98.60;;;5.70;99.90;;;;;;5097020;28;20273;-85
2021/11/13 01:31:14;;;;;;;102.53;84.97;;;5.60;99.90;;;;;;5097815;28;20405;-85
2021/11/13 01:33:41;;;;;;;102.47;81.18;;;5.60;99.90;;;;;;5097437;28;20445;-86
2021/11/13 01:36:06;;;;;;;102.15;84.97;;;5.60;99.90;;;;;;5098966;28;20166;-85
2021/11/13 01:38:32;;;;;;;102.90;70.33;;;5.60;99.90;;;;;;5098852;28;20183;-85
2021/11/13 01:40:58;;;;;;;102.63;68.90;;;5.60;99.90;;;;;;5098628;28;20527;-85
2021/11/13 01:43:24;;;;;;;93.95;60.45;;;5.60;99.90;;;;;;5098992;28;20409;-86
2021/11/13 01:45:53;;;;;;;98.03;72.83;;;5.70;99.90;;;;;;5097744;28;20166;-85
2021/11/13 01:48:19;;;;;;;102.22;78.60;;;5.70;99.90;;;;;;5097316;28;20619;-85
2021/11/13 01:50:46;;;;;;;101.87;79.17;;;5.70;99.90;;;;;;5096010;28;20215;-85
2021/11/13 01:53:12;;;;;;;97.80;70.40;;;5.70;99.90;;;;;;5079075;28;20321;-85
2021/11/13 01:55:41;;;;;;;101.13;64.53;;;5.70;99.90;;;;;;5096838;28;20222;-85
2021/11/13 01:58:11;;;;;;;98.43;70.20;;;5.70;99.90;;;;;;5096827;28;20650;-85
2021/11/13 02:00:44;;;;;;;98.45;64.43;;;5.70;99.90;;;;;;5096999;28;20155;-85
2021/11/13 02:03:12;;;;;;;101.03;68.32;;;5.70;99.90;;;;;;5095461;28;20163;-85
2021/11/13 02:05:38;;;;;;;104.00;76.47;;;5.80;99.90;;;;;;5095190;28;20600;-85
2021/11/13 02:08:04;;;;;;;101.20;80.13;;;5.70;99.90;;;;;;5095531;28;20167;-85
2021/11/13 02:10:31;;;;;;;104.85;83.03;;;5.80;99.90;;;;;;5095335;28;20175;-85
2021/11/13 02:12:57;;;;;;;103.43;87.03;;;5.80;99.90;;;;;;5095954;28;20511;-85
2021/11/13 02:15:23;;;;;;;106.35;84.97;;;5.80;99.90;;;;;;5096284;28;20285;-86
2021/11/13 02:17:50;;;;;;;101.82;78.07;;;5.80;99.90;;;;;;5096813;28;20159;-85
2021/11/13 02:20:28;;;;;;;100.05;67.75;;;5.90;99.90;;;;;;5096433;28;20202;-85
2021/11/13 02:22:56;;;;;;;101.20;78.70;;;5.90;99.90;;;;;;5096610;28;20149;-85
2021/11/13 02:25:25;;;;;;;104.35;78.30;;;5.90;99.90;;;;;;5096719;28;20163;-85
2021/11/13 02:27:51;;;;;;;105.28;89.63;;;6.00;99.90;;;;;;5096384;28;20163;-85
2021/11/13 02:30:18;;;;;;;112.43;97.28;;;6.00;99.90;;;;;;5096282;28;20186;-85
2021/11/13 02:32:44;;;;;;;148.45;134.63;;;6.00;99.90;;;;;;5096267;28;20163;-85
2021/11/13 02:35:14;;;;;;;110.85;98.70;;;6.10;99.90;;;;;;5096142;28;20658;-85
2021/11/13 02:37:42;;;;;;;126.47;113.70;;;6.10;99.90;;;;;;5096131;28;20530;-85
2021/11/13 02:40:08;;;;;;;146.70;133.52;;;6.20;99.90;;;;;;5095161;28;20209;-85
2021/11/13 02:42:35;;;;;;;144.35;130.73;;;6.20;99.90;;;;;;5094841;28;20220;-85
2021/11/13 02:45:05;;;;;;;160.05;146.20;;;6.30;99.90;;;;;;5097066;28;20197;-85
2021/11/13 02:47:32;;;;;;;173.65;158.60;;;6.40;99.90;;;;;;5095914;28;20511;-85
2021/11/13 02:49:57;;;;;;;158.80;145.27;;;6.50;99.90;;;;;;5094345;28;20202;-85
2021/11/13 02:52:23;;;;;;;149.30;136.20;;;6.50;99.90;;;;;;5096314;28;20228;-85
2021/11/13 02:54:51;;;;;;;139.17;126.17;;;6.50;99.90;;;;;;5095350;28;20611;-85
2021/11/13 02:57:17;;;;;;;122.15;109.18;;;6.50;99.90;;;;;;5095511;28;20718;-85
2021/11/13 02:59:48;;;;;;;124.67;112.27;;;6.50;99.90;;;;;;5094563;28;20192;-85
2021/11/13 03:02:15;;;;;;;136.65;123.80;;;6.50;99.90;;;;;;5096094;28;20530;-85
2021/11/13 03:04:42;;;;;;;137.02;123.55;;;6.40;99.90;;;;;;5095757;28;20245;-85
2021/11/13 03:07:08;;;;;;;135.95;123.10;;;6.40;99.90;;;;;;5095753;28;20178;-85
2021/11/13 03:09:35;;;;;;;134.00;120.90;;;6.50;99.90;;;;;;5095653;28;20187;-85
2021/11/13 03:12:02;;;;;;;127.93;114.75;;;6.50;99.90;;;;;;5094918;28;20502;-85
2021/11/13 03:14:28;;;;;;;162.05;148.18;;;6.50;99.90;;;;;;5095308;28;20183;-85
2021/11/13 03:17:00;;;;;;;134.65;121.85;;;6.50;99.90;;;;;;5095340;28;20163;-85
2021/11/13 03:19:25;;;;;;;128.35;115.15;;;6.50;99.90;;;;;;5094365;28;20183;-85
2021/11/13 03:21:51;;;;;;;132.90;120.10;;;6.50;99.90;;;;;;5095271;28;20673;-85
2021/11/13 03:24:17;;;;;;;161.40;147.43;;;6.60;99.90;;;;;;5095525;28;20171;-85
2021/11/13 03:26:43;;;;;;;142.48;129.23;;;6.60;99.90;;;;;;5094777;28;20171;-85
2021/11/13 03:29:15;;;;;;;136.60;123.60;;;6.60;99.90;;;;;;5095510;28;20731;-85
2021/11/13 03:31:42;;;;;;;121.03;108.20;;;6.70;99.90;;;;;;5095170;28;20420;-85
2021/11/13 03:34:08;;;;;;;111.97;98.85;;;6.70;99.90;;;;;;5093854;28;20202;-85
2021/11/13 03:36:35;;;;;;;134.15;121.20;;;6.70;99.90;;;;;;5095284;28;20534;-86
2021/11/13 03:39:02;;;;;;;147.13;133.30;;;6.60;99.90;;;;;;5094913;28;20677;-85
2021/11/13 03:41:29;;;;;;;115.70;103.38;;;6.60;99.90;;;;;;5095393;28;20171;-85
2021/11/13 03:43:54;;;;;;;114.30;102.05;;;6.60;99.90;;;;;;5093876;28;20168;-86
2021/11/13 03:46:21;;;;;;;105.73;89.80;;;6.70;99.90;;;;;;5095317;28;20249;-86
2021/11/13 03:48:46;;;;;;;115.78;89.45;;;6.70;99.90;;;;;;5092741;28;20195;-86
2021/11/13 03:51:13;;;;;;;130.70;117.53;;;6.60;99.90;;;;;;5094473;28;20155;-87
2021/11/13 03:53:38;;;;;;;140.00;127.13;;;6.60;99.90;;;;;;5092841;28;20409;-87
2021/11/13 03:56:05;;;;;;;160.77;147.10;;;6.60;99.90;;;;;;5093039;28;20209;-87
2021/11/13 03:58:30;;;;;;;138.52;125.20;;;6.50;99.90;;;;;;5093833;28;20419;-87
2021/11/13 04:00:56;;;;;;;164.83;150.53;;;6.50;99.90;;;;;;5092495;28;20254;-87
2021/11/13 04:03:22;;;;;;;151.43;137.77;;;6.50;99.90;;;;;;5094136;28;20163;-86
2021/11/13 04:05:48;;;;;;;159.47;145.80;;;6.50;99.90;;;;;;5095051;28;20749;-86
2021/11/13 04:08:15;;;;;;;166.13;152.17;;;6.50;99.90;;;;;;5094037;28;20246;-86
2021/11/13 04:10:40;;;;;;;149.25;135.45;;;6.50;99.90;;;;;;5093740;28;20182;-87
2021/11/13 04:13:06;;;;;;;179.80;165.17;;;6.40;99.90;;;;;;5093537;28;20163;-87
2021/11/13 04:15:33;;;;;;;162.07;147.70;;;6.40;99.90;;;;;;5092187;28;20589;-87
2021/11/13 04:17:58;;;;;;;180.32;165.65;;;6.40;99.90;;;;;;5093034;28;20806;-87
2021/11/13 04:20:24;;;;;;;168.10;153.47;;;6.50;99.90;;;;;;5093441;28;20156;-87
2021/11/13 04:22:51;;;;;;;192.20;176.33;;;6.50;99.90;;;;;;5093721;28;20206;-87
2021/11/13 04:25:19;;;;;;;161.10;147.13;;;6.40;99.90;;;;;;5092528;28;20404;-87
2021/11/13 04:27:45;;;;;;;185.70;170.40;;;6.40;99.90;;;;;;5093615;28;20178;-87
2021/11/13 04:30:13;;;;;;;195.82;180.57;;;6.40;99.90;;;;;;5093301;28;20179;-86
2021/11/13 04:32:40;;;;;;;169.20;154.65;;;6.40;99.90;;;;;;5092122;28;20171;-86
2021/11/13 04:35:20;;;;;;;202.57;187.20;;;6.40;99.90;;;;;;5093313;28;20722;-86
2021/11/13 04:37:49;;;;;;;181.30;166.55;;;6.40;99.90;;;;;;5093635;28;20484;-86
2021/11/13 04:40:16;;;;;;;178.77;163.63;;;6.40;99.90;;;;;;5093537;28;20728;-86
2021/11/13 04:42:42;;;;;;;180.50;165.27;;;6.40;99.90;;;;;;5093395;28;20155;-86
2021/11/13 04:45:08;;;;;;;174.30;159.40;;;6.40;99.90;;;;;;5094027;28;20518;-86
2021/11/13 04:47:34;;;;;;;201.50;185.33;;;6.40;99.90;;;;;;5093282;28;20429;-86
2021/11/13 04:50:01;;;;;;;185.18;170.27;;;6.40;99.90;;;;;;5093278;28;20451;-86
2021/11/13 04:52:27;;;;;;;178.57;163.55;;;6.40;99.90;;;;;;5092094;28;20167;-86
2021/11/13 04:54:54;;;;;;;207.17;191.13;;;6.40;99.90;;;;;;5093040;28;20190;-86
2021/11/13 04:57:19;;;;;;;213.90;197.52;;;6.40;99.90;;;;;;5093366;28;20484;-86
2021/11/13 04:59:45;;;;;;;208.70;193.07;;;6.50;99.90;;;;;;5092934;28;20253;-86
2021/11/13 05:02:11;;;;;;;220.93;204.43;;;6.50;99.90;;;;;;5093028;28;20627;-86
2021/11/13 05:04:36;;;;;;;183.97;169.37;;;6.50;99.90;;;;;;5094077;28;20199;-86
2021/11/13 05:07:02;;;;;;;195.57;180.30;;;6.50;99.90;;;;;;5091715;28;20174;-86
2021/11/13 05:09:28;;;;;;;178.87;164.03;;;6.50;99.90;;;;;;5092902;28;20265;-87
2021/11/13 05:11:54;;;;;;;200.83;185.40;;;6.50;99.90;;;;;;5091693;28;20405;-87
2021/11/13 05:14:19;;;;;;;169.50;154.87;;;6.50;99.90;;;;;;5093170;28;20270;-87
2021/11/13 05:16:45;;;;;;;201.37;185.50;;;6.50;99.90;;;;;;5092896;28;20187;-87
2021/11/13 05:19:11;;;;;;;191.17;176.00;;;6.50;99.90;;;;;;5091614;28;20429;-86
2021/11/13 05:21:37;;;;;;;178.37;163.57;;;6.50;99.90;;;;;;5093510;28;20236;-86
2021/11/13 05:24:03;;;;;;;174.43;159.57;;;6.50;99.90;;;;;;5092911;28;20205;-86
2021/11/13 05:26:29;;;;;;;199.05;183.07;;;6.50;99.90;;;;;;5091500;28;20171;-86
2021/11/13 05:28:55;;;;;;;180.97;165.73;;;6.60;99.90;;;;;;5091992;28;20184;-86
2021/11/13 05:31:21;;;;;;;154.33;140.43;;;6.50;99.90;;;;;;5092889;28;20571;-86
2021/11/13 05:33:46;;;;;;;181.03;165.80;;;6.50;99.90;;;;;;5092921;28;20397;-86
2021/11/13 05:36:12;;;;;;;172.87;157.77;;;6.60;99.90;;;;;;5093140;28;20174;-86
2021/11/13 05:38:38;;;;;;;167.10;152.60;;;6.60;99.90;;;;;;5097069;28;20185;-85
2021/11/13 05:41:03;;;;;;;149.07;135.10;;;6.60;99.90;;;;;;5096487;28;20162;-86
2021/11/13 05:43:29;;;;;;;177.77;162.73;;;6.60;99.90;;;;;;5095712;28;20665;-86
2021/11/13 05:45:55;;;;;;;185.35;170.45;;;6.60;99.90;;;;;;5096751;28;20550;-85
2021/11/13 05:48:22;;;;;;;161.57;147.63;;;6.60;99.90;;;;;;5095316;28;20269;-86
2021/11/13 05:50:48;;;;;;;175.18;160.75;;;6.70;99.90;;;;;;5096556;28;20181;-86
2021/11/13 05:53:17;;;;;;;169.85;155.70;;;6.70;99.90;;;;;;5096430;28;20159;-85
2021/11/13 05:55:42;;;;;;;171.73;157.55;;;6.70;99.90;;;;;;5096442;28;20541;-85
2021/11/13 05:58:18;;;;;;;165.23;150.63;;;6.70;99.90;;;;;;5096211;28;20166;-86
2021/11/13 06:00:44;;;;;;;151.77;137.85;;;6.70;99.90;;;;;;5094781;28;20683;-86
2021/11/13 06:03:10;;;;;;;144.05;130.43;;;6.70;99.90;;;;;;5096267;28;20163;-86
2021/11/13 06:05:40;;;;;;;142.00;128.40;;;6.70;99.90;;;;;;5096060;28;20576;-86
2021/11/13 06:08:06;;;;;;;160.68;146.20;;;6.70;99.90;;;;;;5095463;28;20194;-86
2021/11/13 06:10:34;;;;;;;149.23;135.20;;;6.70;99.90;;;;;;5094820;28;20175;-86
2021/11/13 06:13:07;;;;;;;160.07;145.35;;;6.70;99.90;;;;;;5094799;28;20491;-86
2021/11/13 06:15:33;;;;;;;147.88;134.18;;;6.70;99.90;;;;;;5078736;28;20576;-86
2021/11/13 06:17:59;;;;;;;132.97;120.13;;;6.70;99.90;;;;;;5095667;28;20159;-86
2021/11/13 06:20:28;;;;;;;153.97;140.07;;;6.80;99.90;;;;;;5095567;28;20485;-86
2021/11/13 06:23:09;;;;;;;144.23;130.52;;;6.80;99.90;;;;;;5094416;28;20172;-86
2021/11/13 06:25:38;;;;;;;152.93;138.38;;;6.80;99.90;;;;;;5094288;28;20197;-86
2021/11/13 06:28:10;;;;;;;124.47;108.88;;;6.80;99.90;;;;;;5094253;28;20178;-86
2021/11/13 06:30:36;;;;;;;138.48;125.13;;;6.80;99.90;;;;;;5094595;28;20622;-86
2021/11/13 06:33:02;;;;;;;155.20;141.07;;;6.80;99.90;;;;;;5095830;28;20212;-86
2021/11/13 06:35:35;;;;;;;129.37;116.63;;;6.80;99.90;;;;;;5093920;28;20452;-86
2021/11/13 06:38:01;;;;;;;135.32;121.63;;;6.90;99.90;;;;;;5094996;28;20618;-86
2021/11/13 06:40:30;;;;;;;151.57;137.57;;;6.90;99.90;;;;;;5095553;28;20242;-86
2021/11/13 06:42:59;;;;;;;125.78;112.57;;;6.90;99.90;;;;;;5093896;28;20198;-86
2021/11/13 06:45:31;;;;;;;142.10;128.48;;;6.90;99.90;;;;;;5095531;28;20164;-86
2021/11/13 06:48:00;;;;;;;131.68;118.95;;;6.90;99.90;;;;;;5093228;28;20261;-86
2021/11/13 06:51:11;;;;;;;;;;;;;;;;;;;;;
2021/11/13 06:54:05;;;;;;;117.45;105.22;;;6.90;99.90;;;;;;5099066;28;20230;-84
2021/11/13 06:56:52;;;;;;;118.00;105.40;;;7.00;99.90;;;;;;5067557;28;20178;-84
2021/11/13 06:59:45;;;;;;;117.70;105.30;;;6.90;99.90;;;;;;5097011;28;20270;-85
2021/11/13 07:02:30;;;;;;;148.07;133.70;;;7.00;99.90;;;;;;5057174;28;20212;-85
2021/11/13 07:05:22;;;;;;;123.40;108.78;;;7.00;99.90;;;;;;5057835;28;20172;-85
2021/11/13 07:08:00;;;;;;;138.68;124.90;;;7.00;99.90;;;;;;5093723;28;20187;-84
2021/11/13 07:10:31;;;;;;;116.70;103.95;;;7.00;99.90;;;;;;5097825;28;20538;-84
2021/11/13 07:13:26;;;;;;;113.47;101.30;;;7.00;99.90;;;;;;5099566;28;20166;-85
2021/11/13 07:15:57;;;;;;;120.80;108.60;;;7.00;99.90;;;;;;5098134;28;20229;-84
2021/11/13 07:18:46;;;;;;;114.82;102.40;;;7.10;99.90;;;;;;5099459;28;20183;-84
2021/11/13 07:21:24;;;;;;;112.68;100.28;;;7.10;99.90;;;;;;5099679;28;20559;-84
2021/11/13 07:24:12;;;;;;;130.52;117.60;;;7.10;99.90;;;;;;5099789;28;20147;-84
2021/11/13 07:27:08;;;;;;;110.20;98.22;;;7.20;99.90;;;;;;5099461;28;20177;-84
2021/11/13 07:33:05;;;;;;;111.40;99.80;;;7.20;99.90;;;;;;5087163;28;20580;-84
2021/11/13 07:36:00;;;;;;;126.18;113.07;;;7.20;99.90;;;;;;5059946;28;20210;-84
2021/11/13 07:41:43;;;;;;;101.47;78.55;;;7.30;99.90;;;;;;5099764;28;20163;-84
2021/11/13 07:44:09;;;;;;;99.38;75.82;;;7.30;99.90;;;;;;5097569;28;20258;-84
2021/11/13 07:46:46;;;;;;;105.17;90.33;;;7.40;99.90;;;;;;5098580;28;20259;-84
2021/11/13 07:49:26;;;;;;;114.93;98.50;;;7.40;99.90;;;;;;5083680;22;20208;-84
2021/11/13 07:52:38;;;;;;;110.30;94.15;;;7.40;99.90;;;;;;5054167;28;20157;-84
2021/11/13 07:58:28;;;;;;;100.78;80.60;;;7.50;99.90;;;;;;5038184;28;20200;-84
2021/11/13 08:01:03;;;;;;;100.40;85.97;;;7.50;99.90;;;;;;5039292;28;20152;-84
2021/11/13 08:03:32;;;;;;;112.72;87.15;;;7.60;99.90;;;;;;5039429;28;20177;-84
2021/11/13 08:06:01;;;;;;;99.90;72.72;;;7.60;99.90;;;;;;5036723;28;20176;-84
2021/11/13 08:08:35;;;;;;;101.35;81.63;;;7.60;99.90;;;;;;5036593;28;20189;-84
2021/11/13 08:11:26;;;;;;;;;;;;;;;;;;;;;
2021/11/13 08:14:36;;;;;;;98.97;75.28;;;7.60;99.90;;;;;;5038734;28;20274;-84
2021/11/13 08:17:37;;;;;;;95.28;70.32;;;7.60;99.90;;;;;;5038467;28;20169;-84
2021/11/13 08:24:34;;;;;;;93.57;68.72;;;7.70;99.90;;;;;;4979275;28;20171;-85
2021/11/13 08:27:14;;;;;;;95.80;72.70;;;7.80;99.90;;;;;;4942680;28;20175;-85
2021/11/13 08:30:48;;;;;;;89.53;57.50;;;7.80;99.90;;;;;;4958730;28;20222;-85
2021/11/13 08:33:20;;;;;;;95.53;70.10;;;7.90;99.90;;;;;;4890308;29;20190;-85
2021/11/13 08:36:27;;;;;;;94.28;78.15;;;8.00;99.90;;;;;;4950068;29;20215;-85
2021/11/13 08:39:17;;;;;;;;;;;;;;;;;;;;;
2021/11/13 08:42:18;;;;;;;88.43;59.88;;;8.10;99.90;;;;;;5024737;28;20240;-84
2021/11/13 08:45:08;;;;;;;94.57;70.78;;;8.20;99.90;;;;;;4958000;28;20176;-84
2021/11/13 08:47:57;;;;;;;89.53;51.65;;;8.20;99.90;;;;;;5038232;28;20188;-84
2021/11/13 08:50:33;;;;;;;89.43;50.40;;;8.20;99.90;;;;;;5038828;28;20252;-85
2021/11/13 08:53:43;;;;;;;90.43;58.58;;;8.20;99.90;;;;;;5039754;28;20517;-85
2021/11/13 08:57:06;;;;;;;90.75;58.47;;;8.20;99.90;;;;;;5017748;28;20182;-85
2021/11/13 09:03:22;;;;;;;88.68;54.67;;;8.30;99.90;;;;;;4987529;28;20231;-84
2021/11/13 09:06:50;;;;;;;93.75;58.45;;;8.30;99.90;;;;;;5036622;28;20175;-85
2021/11/13 09:09:46;;;;;;;95.35;65.88;;;8.40;99.90;;;;;;5033668;28;20193;-84
2021/11/13 09:12:56;;;;;;;88.70;52.55;;;8.40;99.90;;;;;;5041218;28;20165;-84
2021/11/13 09:15:43;;;;;;;87.18;51.00;;;8.50;99.90;;;;;;5026869;28;20678;-84
2021/11/13 09:18:29;;;;;;;90.25;55.20;;;8.50;99.90;;;;;;5030252;28;20177;-84
2021/11/13 09:21:56;;;;;;;;;;;;;;;;;;;;;
2021/11/13 09:27:45;;;;;;;89.70;54.67;;;8.70;99.90;;;;;;4962194;29;20678;-85
2021/11/13 09:33:13;;;;;;;102.70;83.63;;;8.90;99.90;;;;;;3291874;26;20224;-85
2021/11/13 09:36:09;;;;;;;85.65;57.25;;;9.00;99.90;;;;;;5060374;28;20568;-85
2021/11/13 09:39:02;;;;;;;85.88;54.63;;;9.00;99.90;;;;;;5050885;28;20192;-84
2021/11/13 09:41:52;;;;;;;86.38;54.58;;;9.00;99.90;;;;;;5061528;28;20160;-84
2021/11/13 09:44:19;;;;;;;85.00;53.00;;;9.10;99.90;;;;;;5061161;28;20149;-85
2021/11/13 09:46:51;;;;;;;94.15;69.72;;;9.20;99.90;;;;;;5060781;28;20207;-85
2021/11/13 09:49:33;;;;;;;87.80;59.03;;;9.30;99.90;;;;;;5059054;28;20246;-85
2021/11/13 09:52:00;;;;;;;87.65;53.65;;;9.30;99.90;;;;;;5060162;28;20163;-85
2021/11/13 09:54:30;;;;;;;91.15;51.38;;;9.40;99.90;;;;;;5059798;28;20274;-84
2021/11/13 09:57:04;;;;;;;83.47;49.10;;;9.40;99.90;;;;;;5057946;28;20861;-84
2021/11/13 10:00:12;;;;;;;;;;;;;;;;;;;;;
2021/11/13 10:02:43;;;;;;;83.70;53.05;;;9.40;99.90;;;;;;5060973;28;20695;-84
2021/11/13 10:05:14;;;;;;;85.05;54.72;;;9.30;99.90;;;;;;5060541;28;20176;-84
2021/11/13 10:07:47;;;;;;;92.20;65.28;;;9.40;99.90;;;;;;5059230;28;20161;-84
2021/11/13 10:10:39;;;;;;;85.78;58.17;;;9.40;99.90;;;;;;5060511;28;20184;-85
2021/11/13 10:13:31;;;;;;;83.72;53.50;;;9.40;99.90;;;;;;5061088;28;20236;-85
2021/11/13 10:16:21;;;;;;;82.88;50.60;;;9.40;99.90;;;;;;5061026;28;20590;-85
2021/11/13 10:19:38;;;;;;;83.93;53.35;;;9.50;99.90;;;;;;5060014;28;20207;-85
2021/11/13 10:22:25;;;;;;;80.13;42.15;;;9.50;99.90;;;;;;5059516;28;20157;-85
2021/11/13 10:25:42;;;;;;;81.32;45.80;;;9.60;99.90;;;;;;5059916;28;20658;-85
2021/11/13 10:29:14;;;;;;;80.47;45.45;;;9.60;99.90;;;;;;5059592;28;20639;-85
2021/11/13 10:31:38;;;;;;;82.55;48.42;;;9.60;99.90;;;;;;5057272;28;20283;-85
2021/11/13 10:34:40;;;;;;;85.65;53.75;;;9.60;99.90;;;;;;5059049;28;20196;-85
2021/11/13 10:37:17;;;;;;;91.60;65.10;;;9.70;99.90;;;;;;5052953;28;20589;-84
2021/11/13 10:39:59;;;;;;;96.63;75.63;;;9.80;99.90;;;;;;5059331;28;20594;-84
2021/11/13 10:42:31;;;;;;;96.93;74.10;;;10.00;99.90;;;;;;5059599;28;20148;-84
2021/11/13 10:45:06;;;;;;;94.07;76.82;;;10.10;99.90;;;;;;5058967;28;20172;-84
2021/11/13 10:47:38;;;;;;;96.30;78.28;;;10.20;99.90;;;;;;5057196;28;20180;-84
2021/11/13 10:50:25;;;;;;;96.20;80.20;;;10.30;99.90;;;;;;5057474;28;20258;-84
2021/11/13 10:53:12;;;;;;;101.38;85.85;;;10.40;99.90;;;;;;5057580;28;20181;-83
2021/11/13 10:55:59;;;;;;;96.88;80.63;;;10.40;99.90;;;;;;5059050;28;20237;-83
2021/11/13 10:58:55;;;;;;;106.80;94.70;;;10.50;99.90;;;;;;5058425;28;20191;-83
2021/11/13 11:01:35;;;;;;;92.10;67.63;;;10.50;99.90;;;;;;5059085;28;20220;-83
2021/11/13 11:04:23;;;;;;;90.95;73.55;;;10.50;99.90;;;;;;5058383;28;20636;-83
2021/11/13 11:07:14;;;;;;;92.47;69.78;;;10.50;99.90;;;;;;5058637;28;20605;-83
2021/11/13 11:09:46;;;;;;;86.55;55.13;;;10.50;99.90;;;;;;5058967;28;20248;-83
2021/11/13 11:12:17;;;;;;;95.15;73.28;;;10.60;99.90;;;;;;5059315;28;20149;-83
2021/11/13 11:14:52;;;;;;;88.03;64.93;;;10.60;99.90;;;;;;5057135;28;20215;-83
2021/11/13 11:17:24;;;;;;;98.03;79.03;;;10.70;99.90;;;;;;5058718;28;20294;-83
2021/11/13 11:20:00;;;;;;;89.13;69.22;;;10.70;99.90;;;;;;5058595;28;20215;-83
2021/11/13 11:22:36;;;;;;;91.78;76.05;;;10.70;99.90;;;;;;5059035;28;20145;-83
2021/11/13 11:25:13;;;;;;;88.65;69.85;;;10.60;99.90;;;;;;5058890;28;20149;-83
2021/11/13 11:27:45;;;;;;;88.90;67.45;;;10.60;99.90;;;;;;5058736;28;20185;-83
2021/11/13 11:30:22;;;;;;;91.07;73.18;;;10.50;99.90;;;;;;5058223;28;20595;-83
2021/11/13 11:32:59;;;;;;;92.75;80.13;;;10.40;99.90;;;;;;5058139;28;20187;-83
2021/11/13 11:35:31;;;;;;;93.05;81.55;;;10.40;99.90;;;;;;5057523;28;20191;-83
2021/11/13 11:38:02;;;;;;;94.13;82.80;;;10.40;99.90;;;;;;5058567;28;20195;-83
2021/11/13 11:40:33;;;;;;;96.25;85.70;;;10.40;99.90;;;;;;5057323;28;20148;-83
2021/11/13 11:43:00;;;;;;;94.18;81.50;;;10.40;99.90;;;;;;5058659;28;20145;-83
2021/11/13 11:45:31;;;;;;;97.68;86.85;;;10.40;99.90;;;;;;5057358;28;20180;-83
2021/11/13 11:48:00;;;;;;;113.13;101.97;;;10.40;99.90;;;;;;5058929;28;20161;-83
2021/11/13 11:50:31;;;;;;;102.13;91.07;;;10.40;99.90;;;;;;5057393;28;20263;-83
2021/11/13 11:52:59;;;;;;;98.70;88.10;;;10.30;99.90;;;;;;5057350;28;20165;-83
2021/11/13 11:55:27;;;;;;;100.93;90.18;;;10.30;99.90;;;;;;5057962;28;20599;-83
2021/11/13 11:57:54;;;;;;;94.28;82.07;;;10.30;99.90;;;;;;5057892;28;20156;-83
2021/11/13 12:00:24;;;;;;;95.72;80.78;;;10.30;99.90;;;;;;5058129;28;20279;-83
2021/11/13 12:02:55;;;;;;;93.88;79.93;;;10.30;99.90;;;;;;5058095;28;20161;-83
2021/11/13 12:05:30;;;;;;;95.18;77.90;;;10.40;99.90;;;;;;5056813;28;20172;-83
2021/11/13 12:08:16;;;;;;;87.57;64.07;;;10.40;99.90;;;;;;5058580;28;20159;-83
2021/11/13 12:10:42;;;;;;;86.38;60.20;;;10.40;99.90;;;;;;5056310;28;20164;-83
2021/11/13 12:13:13;;;;;;;90.10;73.53;;;10.40;99.90;;;;;;5057607;28;20171;-83
2021/11/13 12:15:46;;;;;;;89.20;65.93;;;10.50;99.90;;;;;;5057562;28;20191;-83
2021/11/13 12:18:16;;;;;;;91.22;74.35;;;10.50;99.90;;;;;;5056549;28;20252;-83
2021/11/13 12:20:43;;;;;;;89.95;67.28;;;10.50;99.90;;;;;;5057830;28;20170;-83
2021/11/13 12:23:14;;;;;;;93.45;72.95;;;10.50;99.90;;;;;;5057867;28;20165;-83
2021/11/13 12:26:02;;;;;;;90.35;65.15;;;10.50;99.90;;;;;;5056566;28;20153;-83
2021/11/13 12:28:30;;;;;;;89.97;63.35;;;10.50;99.90;;;;;;5057243;28;20195;-83
2021/11/13 12:31:08;;;;;;;89.82;67.40;;;10.50;99.90;;;;;;5057437;28;20169;-83
2021/11/13 12:33:34;;;;;;;89.15;68.80;;;10.50;99.90;;;;;;5057712;28;20180;-83
2021/11/13 12:36:27;;;;;;;93.17;78.77;;;10.50;99.90;;;;;;5055956;28;20259;-83
2021/11/13 12:38:56;;;;;;;89.78;70.28;;;10.60;99.90;;;;;;5053499;28;20204;-83
2021/11/13 12:41:35;;;;;;;90.18;70.15;;;10.60;99.90;;;;;;5057463;28;20644;-83
2021/11/13 12:44:04;;;;;;;91.50;71.15;;;10.60;99.90;;;;;;5057896;28;20152;-83
2021/11/13 12:46:40;;;;;;;91.55;74.18;;;10.60;99.90;;;;;;5059723;28;20216;-83
2021/11/13 12:52:33;;;;;;;93.53;77.65;;;10.60;99.90;;;;;;5055666;28;20211;-87
2021/11/13 12:55:45;;;;;;;96.07;76.75;;;10.70;99.90;;;;;;5004571;28;20208;-88
2021/11/13 12:58:59;;;;;;;88.75;63.15;;;10.70;99.90;;;;;;4975159;28;20643;-88
2021/11/13 13:01:29;;;;;;;87.65;62.90;;;10.70;99.90;;;;;;5055527;28;20168;-88
2021/11/13 13:05:24;;;;;;;89.75;65.82;;;10.70;99.90;;;;;;5057927;28;20153;-88
2021/11/13 13:07:58;;;;;;;96.97;78.63;;;10.70;99.90;;;;;;4992326;28;20174;-88
2021/11/13 13:10:41;;;;;;;89.30;67.18;;;10.70;99.90;;;;;;5129201;22;20226;-87
2021/11/13 13:13:16;;;;;;;87.55;61.42;;;10.70;99.90;;;;;;5097083;28;20143;-87
2021/11/13 13:16:06;;;;;;;;;;;;;;;;;;;;;
2021/11/13 13:18:40;;;;;;;87.38;61.78;;;10.70;99.90;;;;;;5096860;28;20217;-88
2021/11/13 13:21:06;;;;;;;90.70;68.47;;;10.60;99.90;;;;;;5096900;28;20147;-87
2021/11/13 13:23:36;;;;;;;93.38;78.15;;;10.60;99.90;;;;;;5096823;28;20572;-88
2021/11/13 13:26:09;;;;;;;96.88;85.90;;;10.60;99.90;;;;;;5095751;28;20258;-88
2021/11/13 13:28:35;;;;;;;92.13;73.15;;;10.50;99.90;;;;;;5097331;28;20191;-88
2021/11/13 13:31:11;;;;;;;90.20;63.88;;;10.50;99.90;;;;;;5095805;28;20191;-88
2021/11/13 13:34:00;;;;;;;94.15;73.07;;;10.60;99.90;;;;;;5095730;28;20526;-87
2021/11/13 13:36:28;;;;;;;88.95;63.70;;;10.60;99.90;;;;;;5095012;28;20236;-88